Pagina principală
METAR-TAF:

METAR-TAF

Aeroporturi :

Taubaté, São Paulo, Brazilia

Latitudine: 23-02-26S, longitudine: 45-31-00W, elevație: 577 m

Observații meteo curente

Raportul a fost făcut în urmă cu 1 oră și 11 de minute, la 12:00 UTC
Vânt 2 kt din direcții variabile
Temperatură 18°C
Umiditate 77%
Presiune 1024 hPa
Vizibilitate de 10 km sau mai mult
nu există nori sub 1.500 m și nici cumulonimbus

METAR: SBTA 151200Z VRB02KT CAVOK 18/14 Q1024

Ora: 10:11 (13:11 UTC)


TAF: lipsă

Observații și prognoze meteo pentru peste 4.000 de aeroporturi (rapoarte METAR și TAF).

Stațiile disponibile sunt reprezentate pe hartă prin puncte galbene și roșii.

Țineți indicatorul mouse-ului pe punctul dorit pentru a vedea denumirea stației.

Apoi, faceți clic pentru a vedea observațiile și prognozele meteorologice.

Pentru a schimba harta: Pentru mărire, faceți clic pe butoanele verzi cu cruce neagră; pentru micșorare, pe butonul verde cu o liniuță; pentru hărți învecinate, pe săgețile verzi.


METAR-TAF: